Time;durP1;ratioP1;P1;durP2;ratioP2;P2;SDS_P1;SDS_P2;PMS_P1;PMS_P2;Temp;Humidity;BMP_temperature;BMP_pressure;BME280_temperature;BME280_humidity;BME280_pressure;Samples;Min_cycle;Max_cycle;Signal;HPM_P1;HPM_P2
2021/03/26 00:00:11;;;;;;;29.17;26.95;;;;;;;;;;5021895;28;20044;-41
2021/03/26 00:02:37;;;;;;;27.58;25.65;;;;;;;;;;5025750;28;20449;-42
2021/03/26 00:05:07;;;;;;;25.90;24.23;;;;;;;;;;5028504;28;20049;-41
2021/03/26 00:07:33;;;;;;;26.88;25.02;;;;;;;;;;5024443;28;20045;-42
2021/03/26 00:10:00;;;;;;;30.15;28.15;;;;;;;;;;5028122;28;20037;-43
2021/03/26 00:12:27;;;;;;;27.58;26.08;;;;;;;;;;5022987;28;20049;-42
2021/03/26 00:14:54;;;;;;;28.75;26.60;;;;;;;;;;5025870;28;20033;-41
2021/03/26 00:17:20;;;;;;;27.73;25.83;;;;;;;;;;5022393;28;20030;-41
2021/03/26 00:19:47;;;;;;;26.70;25.30;;;;;;;;;;5021712;28;20521;-43
2021/03/26 00:22:13;;;;;;;24.85;23.48;;;;;;;;;;5029215;28;20101;-43
2021/03/26 00:24:39;;;;;;;27.42;26.00;;;;;;;;;;5020505;28;20061;-42
2021/03/26 00:27:06;;;;;;;30.27;28.48;;;;;;;;;;5014890;28;20108;-42
2021/03/26 00:29:33;;;;;;;41.38;37.30;;;;;;;;;;5012802;28;20044;-41
2021/03/26 00:32:00;;;;;;;58.55;47.65;;;;;;;;;;5022511;28;20041;-41
2021/03/26 00:34:27;;;;;;;32.38;29.70;;;;;;;;;;5029073;28;20117;-41
2021/03/26 00:36:54;;;;;;;29.45;27.23;;;;;;;;;;5024477;28;20034;-42
2021/03/26 00:39:20;;;;;;;28.52;26.80;;;;;;;;;;5023960;28;20104;-43
2021/03/26 00:41:46;;;;;;;28.10;26.42;;;;;;;;;;5014500;28;20050;-41
2021/03/26 00:44:12;;;;;;;27.88;26.42;;;;;;;;;;5021656;28;20042;-42
2021/03/26 00:46:40;;;;;;;28.50;27.00;;;;;;;;;;5019653;28;20137;-41
2021/03/26 00:49:06;;;;;;;28.95;26.83;;;;;;;;;;5029395;28;20053;-43
2021/03/26 00:51:33;;;;;;;26.77;24.92;;;;;;;;;;5029206;28;20049;-43
2021/03/26 00:54:01;;;;;;;26.65;25.13;;;;;;;;;;5032934;28;20382;-41
2021/03/26 00:56:27;;;;;;;28.15;26.73;;;;;;;;;;5027076;28;20033;-41
2021/03/26 00:58:53;;;;;;;27.50;26.27;;;;;;;;;;5032168;28;20113;-41
2021/03/26 01:01:20;;;;;;;31.83;29.55;;;;;;;;;;5029654;28;20065;-41
2021/03/26 01:03:46;;;;;;;34.60;31.00;;;;;;;;;;5025977;28;20041;-41
2021/03/26 01:06:12;;;;;;;30.52;28.25;;;;;;;;;;5033684;28;20050;-42
2021/03/26 01:08:39;;;;;;;35.20;32.42;;;;;;;;;;5023663;28;20695;-41
2021/03/26 01:11:12;;;;;;;32.97;30.25;;;;;;;;;;5029305;28;20033;-42
2021/03/26 01:13:39;;;;;;;28.70;27.10;;;;;;;;;;5030535;28;20037;-42
2021/03/26 01:16:06;;;;;;;26.40;24.92;;;;;;;;;;5029108;28;20117;-42
2021/03/26 01:18:35;;;;;;;26.30;24.75;;;;;;;;;;5033033;28;20121;-42
2021/03/26 01:21:02;;;;;;;25.13;24.10;;;;;;;;;;5027664;28;20053;-42
2021/03/26 01:23:29;;;;;;;27.50;26.10;;;;;;;;;;5028835;28;20042;-42
2021/03/26 01:25:57;;;;;;;28.20;26.35;;;;;;;;;;5026540;28;20104;-42
2021/03/26 01:28:24;;;;;;;26.90;25.45;;;;;;;;;;5024495;28;20038;-41
2021/03/26 01:30:50;;;;;;;26.08;24.60;;;;;;;;;;5032430;28;20052;-41
2021/03/26 01:33:18;;;;;;;23.55;22.30;;;;;;;;;;5028190;28;20057;-44
2021/03/26 01:35:45;;;;;;;26.92;25.35;;;;;;;;;;5019898;28;20057;-42
2021/03/26 01:38:11;;;;;;;26.85;25.00;;;;;;;;;;5031203;28;20033;-41
2021/03/26 01:40:43;;;;;;;28.75;25.92;;;;;;;;;;5024986;28;20041;-41
2021/03/26 01:43:11;;;;;;;27.63;26.25;;;;;;;;;;5031647;28;20030;-43
2021/03/26 01:45:39;;;;;;;27.95;26.27;;;;;;;;;;5030354;28;20077;-43
2021/03/26 01:48:06;;;;;;;27.65;26.23;;;;;;;;;;5022121;28;20436;-42
2021/03/26 01:50:33;;;;;;;26.23;24.90;;;;;;;;;;5022032;28;20501;-42
2021/03/26 01:52:59;;;;;;;29.08;27.75;;;;;;;;;;5020288;28;20099;-41
2021/03/26 01:55:37;;;;;;;28.75;27.25;;;;;;;;;;5026969;28;20054;-41
2021/03/26 01:58:04;;;;;;;29.55;28.02;;;;;;;;;;5029771;28;20120;-42
2021/03/26 02:00:33;;;;;;;27.13;25.92;;;;;;;;;;5025765;28;20041;-43
2021/03/26 02:03:07;;;;;;;26.42;25.23;;;;;;;;;;5029844;28;20077;-41
2021/03/26 02:05:34;;;;;;;27.67;26.38;;;;;;;;;;5025874;28;20041;-42
2021/03/26 02:08:01;;;;;;;26.73;25.58;;;;;;;;;;5028011;28;20100;-41
2021/03/26 02:10:27;;;;;;;26.48;25.45;;;;;;;;;;5021624;28;20030;-42
2021/03/26 02:12:58;;;;;;;26.02;24.58;;;;;;;;;;5023695;28;20037;-42
2021/03/26 02:15:28;;;;;;;27.10;25.75;;;;;;;;;;5030548;28;20034;-42
2021/03/26 02:17:55;;;;;;;25.75;24.75;;;;;;;;;;5027224;28;20490;-41
2021/03/26 02:20:35;;;;;;;25.98;25.05;;;;;;;;;;5024780;28;20042;-41
2021/03/26 02:23:21;;;;;;;27.23;25.75;;;;;;;;;;5020546;28;20545;-41
2021/03/26 02:25:48;;;;;;;27.83;26.10;;;;;;;;;;5026812;28;20041;-41
2021/03/26 02:28:15;;;;;;;27.45;26.08;;;;;;;;;;5026563;28;20037;-41
2021/03/26 02:30:50;;;;;;;27.95;26.65;;;;;;;;;;5031510;28;20373;-42
2021/03/26 02:33:17;;;;;;;27.92;26.55;;;;;;;;;;5023901;28;20037;-41
2021/03/26 02:35:45;;;;;;;28.55;27.17;;;;;;;;;;5018069;28;20042;-41
2021/03/26 02:38:20;;;;;;;30.65;29.00;;;;;;;;;;5027790;28;20076;-42
2021/03/26 02:40:55;;;;;;;28.13;26.80;;;;;;;;;;5020879;28;20042;-43
2021/03/26 02:43:25;;;;;;;26.15;24.85;;;;;;;;;;5030396;28;20053;-42
2021/03/26 02:46:00;;;;;;;29.20;27.33;;;;;;;;;;5027327;28;20048;-43
2021/03/26 02:48:32;;;;;;;26.42;25.55;;;;;;;;;;5021906;28;20069;-43
2021/03/26 02:51:13;;;;;;;28.25;26.63;;;;;;;;;;5031324;28;20425;-41
2021/03/26 02:53:48;;;;;;;26.95;25.73;;;;;;;;;;5023700;28;20493;-42
2021/03/26 02:56:24;;;;;;;29.60;28.17;;;;;;;;;;5027342;28;20041;-43
2021/03/26 02:59:11;;;;;;;28.70;27.25;;;;;;;;;;5027582;28;20045;-42
2021/03/26 03:01:43;;;;;;;28.63;27.27;;;;;;;;;;5024381;28;20037;-46
2021/03/26 03:04:30;;;;;;;26.17;24.97;;;;;;;;;;5027599;28;20044;-41
2021/03/26 03:07:06;;;;;;;28.48;26.83;;;;;;;;;;5014003;28;20053;-43
2021/03/26 03:09:34;;;;;;;29.45;28.13;;;;;;;;;;5023489;28;20100;-41
2021/03/26 03:12:05;;;;;;;29.02;27.77;;;;;;;;;;5028144;28;20033;-41
2021/03/26 03:14:41;;;;;;;28.83;27.17;;;;;;;;;;5026799;28;20041;-42
2021/03/26 03:17:40;;;;;;;28.35;27.08;;;;;;;;;;5024518;28;20038;-42
2021/03/26 03:20:09;;;;;;;28.75;27.50;;;;;;;;;;5012221;28;20046;-42
2021/03/26 03:22:58;;;;;;;28.50;27.30;;;;;;;;;;5021589;28;20049;-40
2021/03/26 03:25:27;;;;;;;30.17;28.63;;;;;;;;;;5023321;28;20072;-42
2021/03/26 03:28:13;;;;;;;30.48;28.85;;;;;;;;;;5019402;28;20087;-43
2021/03/26 03:30:45;;;;;;;30.15;28.95;;;;;;;;;;5019448;28;20054;-41
2021/03/26 03:33:29;;;;;;;29.90;28.33;;;;;;;;;;5023011;28;20406;-41
2021/03/26 03:36:04;;;;;;;29.42;28.17;;;;;;;;;;5027180;28;20045;-41
2021/03/26 03:38:34;;;;;;;30.67;29.00;;;;;;;;;;5028047;28;20057;-41
2021/03/26 03:41:21;;;;;;;28.73;27.13;;;;;;;;;;5025164;28;20045;-43
2021/03/26 03:43:56;;;;;;;30.90;29.13;;;;;;;;;;5020792;28;20041;-41
2021/03/26 03:46:26;;;;;;;30.35;28.92;;;;;;;;;;5023428;28;20041;-44
2021/03/26 03:49:05;;;;;;;28.58;27.70;;;;;;;;;;5025572;28;20508;-41
2021/03/26 03:51:41;;;;;;;29.35;28.25;;;;;;;;;;5029943;28;20045;-42
2021/03/26 03:54:10;;;;;;;28.42;27.17;;;;;;;;;;5024753;28;20050;-41
2021/03/26 03:56:37;;;;;;;31.00;29.15;;;;;;;;;;5026632;28;20077;-43
2021/03/26 03:59:12;;;;;;;30.83;29.42;;;;;;;;;;5021877;28;20038;-43
2021/03/26 04:02:19;;;;;;;29.52;28.17;;;;;;;;;;5022516;28;20044;-42
2021/03/26 04:04:49;;;;;;;30.83;29.52;;;;;;;;;;5024726;28;20069;-44
2021/03/26 04:07:22;;;;;;;31.33;29.70;;;;;;;;;;5027624;28;20433;-42
2021/03/26 04:09:51;;;;;;;30.95;29.02;;;;;;;;;;5020683;28;20037;-42
2021/03/26 04:12:19;;;;;;;31.33;29.95;;;;;;;;;;5026640;28;20037;-42
2021/03/26 04:14:52;;;;;;;29.90;28.60;;;;;;;;;;5025543;28;20040;-41
2021/03/26 04:17:22;;;;;;;31.90;30.08;;;;;;;;;;5019116;28;20759;-43
2021/03/26 04:19:53;;;;;;;30.58;29.08;;;;;;;;;;5025779;28;20044;-41
2021/03/26 04:22:22;;;;;;;31.15;29.60;;;;;;;;;;5022305;28;20738;-42
2021/03/26 04:24:53;;;;;;;32.28;30.45;;;;;;;;;;5025935;28;20200;-42
2021/03/26 04:27:34;;;;;;;29.65;28.45;;;;;;;;;;5020835;28;20077;-41
2021/03/26 04:30:00;;;;;;;29.90;28.55;;;;;;;;;;5021346;28;20036;-41
2021/03/26 04:32:26;;;;;;;33.20;31.70;;;;;;;;;;5029364;28;20441;-42
2021/03/26 04:34:54;;;;;;;30.50;28.75;;;;;;;;;;5025005;28;20041;-42
2021/03/26 04:37:20;;;;;;;30.00;28.83;;;;;;;;;;5023837;28;20041;-41
2021/03/26 04:39:49;;;;;;;28.75;27.42;;;;;;;;;;5016654;28;20442;-41
2021/03/26 04:42:36;;;;;;;32.22;30.83;;;;;;;;;;5020946;28;20041;-43
2021/03/26 04:45:07;;;;;;;32.95;31.55;;;;;;;;;;5017108;28;20124;-42
2021/03/26 04:47:40;;;;;;;31.80;30.38;;;;;;;;;;5013090;28;20042;-41
2021/03/26 04:50:13;;;;;;;31.27;29.90;;;;;;;;;;5021642;28;20053;-40
2021/03/26 04:52:56;;;;;;;33.13;31.42;;;;;;;;;;5014855;28;20046;-42
2021/03/26 04:55:25;;;;;;;33.17;31.52;;;;;;;;;;5027712;28;20034;-42
2021/03/26 04:57:59;;;;;;;31.90;30.38;;;;;;;;;;5021771;28;20645;-41
2021/03/26 05:00:28;;;;;;;30.20;28.77;;;;;;;;;;5028494;28;20033;-41
2021/03/26 05:03:04;;;;;;;32.65;31.13;;;;;;;;;;5022922;28;20037;-41
2021/03/26 05:05:32;;;;;;;31.35;30.00;;;;;;;;;;5016844;28;20344;-43
2021/03/26 05:08:01;;;;;;;32.83;31.00;;;;;;;;;;5027157;28;20076;-42
2021/03/26 05:10:28;;;;;;;30.77;29.38;;;;;;;;;;5024682;28;20624;-41
2021/03/26 05:12:57;;;;;;;36.78;34.50;;;;;;;;;;5028696;28;20598;-42
2021/03/26 05:15:28;;;;;;;34.55;32.92;;;;;;;;;;5039029;28;20103;-42
2021/03/26 05:18:06;;;;;;;34.60;32.80;;;;;;;;;;5021346;28;20045;-42
2021/03/26 05:20:36;;;;;;;35.10;33.40;;;;;;;;;;5029271;28;20091;-44
2021/03/26 05:23:07;;;;;;;35.63;33.90;;;;;;;;;;5024751;28;20045;-41
2021/03/26 05:25:39;;;;;;;34.45;32.30;;;;;;;;;;5019031;28;20090;-41
2021/03/26 05:28:12;;;;;;;33.67;31.33;;;;;;;;;;5030216;28;20037;-41
2021/03/26 05:30:40;;;;;;;35.13;33.45;;;;;;;;;;5026313;28;20050;-41
2021/03/26 05:33:20;;;;;;;33.42;31.60;;;;;;;;;;5020506;28;20056;-41
2021/03/26 05:35:51;;;;;;;34.15;32.28;;;;;;;;;;5029858;28;20073;-41
2021/03/26 05:38:22;;;;;;;34.22;32.60;;;;;;;;;;5025314;28;20121;-41
2021/03/26 05:40:50;;;;;;;34.60;33.03;;;;;;;;;;5043103;28;20046;-41
2021/03/26 05:43:35;;;;;;;32.53;30.75;;;;;;;;;;5026061;28;20038;-42
2021/03/26 05:46:08;;;;;;;33.10;31.77;;;;;;;;;;5025536;28;20034;-41
2021/03/26 05:48:53;;;;;;;34.67;32.35;;;;;;;;;;5029548;28;20054;-41
2021/03/26 05:51:36;;;;;;;35.58;33.85;;;;;;;;;;5018335;28;20433;-41
2021/03/26 05:54:26;;;;;;;34.20;32.45;;;;;;;;;;5009774;28;20050;-41
2021/03/26 05:57:02;;;;;;;34.22;32.30;;;;;;;;;;5019120;28;20057;-42
2021/03/26 05:59:34;;;;;;;33.47;32.28;;;;;;;;;;5023805;28;20053;-41
2021/03/26 06:02:15;;;;;;;31.85;30.50;;;;;;;;;;5019587;28;20034;-42
2021/03/26 06:04:54;;;;;;;31.25;29.98;;;;;;;;;;5022075;28;20049;-45
2021/03/26 06:07:30;;;;;;;34.40;32.92;;;;;;;;;;5027664;28;20037;-41
2021/03/26 06:09:56;;;;;;;33.28;31.42;;;;;;;;;;5027792;28;20037;-42
2021/03/26 06:12:25;;;;;;;33.55;32.35;;;;;;;;;;5030229;28;20041;-43
2021/03/26 06:14:58;;;;;;;32.08;30.70;;;;;;;;;;5026305;28;20061;-41
2021/03/26 06:17:33;;;;;;;31.83;30.50;;;;;;;;;;5029658;28;20366;-42
2021/03/26 06:20:05;;;;;;;31.17;29.85;;;;;;;;;;5028663;28;20635;-41
2021/03/26 06:22:31;;;;;;;30.88;29.88;;;;;;;;;;5023710;28;20037;-41
2021/03/26 06:25:00;;;;;;;30.17;28.98;;;;;;;;;;5023381;28;20398;-41
2021/03/26 06:27:30;;;;;;;28.48;27.40;;;;;;;;;;5023004;28;20068;-43
2021/03/26 06:29:56;;;;;;;31.02;29.73;;;;;;;;;;5025502;28;20064;-42
2021/03/26 06:32:41;;;;;;;27.90;26.60;;;;;;;;;;5029450;28;20042;-43
2021/03/26 06:35:07;;;;;;;27.50;25.70;;;;;;;;;;5024246;28;20065;-41
2021/03/26 06:37:40;;;;;;;36.80;34.60;;;;;;;;;;5030943;28;20109;-43
2021/03/26 06:40:23;;;;;;;37.38;34.65;;;;;;;;;;5026479;28;20099;-44
2021/03/26 06:43:04;;;;;;;36.88;33.67;;;;;;;;;;5025992;28;20144;-45
2021/03/26 06:45:49;;;;;;;26.00;24.40;;;;;;;;;;5026221;28;20116;-42
2021/03/26 06:48:18;;;;;;;14.02;13.25;;;;;;;;;;5028439;28;20393;-41
2021/03/26 06:51:05;;;;;;;14.25;13.35;;;;;;;;;;5025575;28;20041;-45
2021/03/26 06:53:43;;;;;;;12.18;11.60;;;;;;;;;;5027720;28;20511;-45
2021/03/26 06:56:28;;;;;;;13.13;12.38;;;;;;;;;;5027355;28;20041;-45
2021/03/26 06:59:12;;;;;;;13.68;12.68;;;;;;;;;;5024123;28;20116;-43
2021/03/26 07:01:44;;;;;;;14.52;12.75;;;;;;;;;;5028609;28;20034;-42
2021/03/26 07:04:38;;;;;;;20.00;18.77;;;;;;;;;;5027262;28;20051;-44
2021/03/26 07:07:14;;;;;;;28.80;26.45;;;;;;;;;;5026103;28;20466;-43
2021/03/26 07:09:59;;;;;;;29.77;27.83;;;;;;;;;;5031077;28;20049;-45
2021/03/26 07:12:40;;;;;;;15.20;13.73;;;;;;;;;;5027356;28;20405;-44
2021/03/26 07:15:10;;;;;;;12.90;11.98;;;;;;;;;;5020280;28;20056;-44
2021/03/26 07:17:36;;;;;;;13.60;12.38;;;;;;;;;;5029806;28;20458;-43
2021/03/26 07:20:16;;;;;;;10.85;10.43;;;;;;;;;;5025574;28;20038;-43
2021/03/26 07:23:01;;;;;;;14.57;12.73;;;;;;;;;;5023612;28;21471;-43
2021/03/26 07:25:46;;;;;;;25.10;16.55;;;;;;;;;;5031536;28;20052;-46
2021/03/26 07:28:17;;;;;;;29.75;18.30;;;;;;;;;;5026438;28;20236;-44
2021/03/26 07:30:52;;;;;;;11.95;11.20;;;;;;;;;;5026585;28;20053;-42
2021/03/26 07:33:21;;;;;;;10.68;10.18;;;;;;;;;;5027370;28;20046;-42
2021/03/26 07:35:53;;;;;;;9.38;8.88;;;;;;;;;;5023400;28;20111;-43
2021/03/26 07:38:27;;;;;;;8.82;7.97;;;;;;;;;;5026946;28;20033;-44
2021/03/26 07:41:11;;;;;;;11.43;10.60;;;;;;;;;;5027813;28;20037;-43
2021/03/26 07:43:56;;;;;;;8.50;8.10;;;;;;;;;;5022609;28;20095;-41
2021/03/26 07:46:32;;;;;;;8.43;7.95;;;;;;;;;;5028035;28;20156;-42
2021/03/26 07:49:04;;;;;;;8.27;7.88;;;;;;;;;;5028912;28;20125;-42
2021/03/26 07:51:34;;;;;;;8.35;7.68;;;;;;;;;;5023479;28;20041;-44
2021/03/26 07:54:15;;;;;;;7.82;7.53;;;;;;;;;;5029639;28;20529;-41
2021/03/26 07:57:00;;;;;;;8.27;7.72;;;;;;;;;;5031835;28;20050;-43
2021/03/26 07:59:26;;;;;;;7.60;7.15;;;;;;;;;;5023358;28;20697;-41
2021/03/26 08:01:59;;;;;;;8.07;7.70;;;;;;;;;;5028445;28;20049;-44
2021/03/26 08:04:31;;;;;;;9.87;7.47;;;;;;;;;;5024419;28;20034;-43
2021/03/26 08:07:01;;;;;;;7.80;7.30;;;;;;;;;;5025109;28;20081;-42
2021/03/26 08:09:27;;;;;;;7.32;6.93;;;;;;;;;;5029016;28;20519;-43
2021/03/26 08:11:59;;;;;;;7.40;7.05;;;;;;;;;;5022934;28;20041;-42
2021/03/26 08:14:43;;;;;;;7.43;7.03;;;;;;;;;;5028460;28;20041;-44
2021/03/26 08:17:13;;;;;;;8.27;7.78;;;;;;;;;;5027526;28;20040;-43
2021/03/26 08:20:00;;;;;;;8.23;7.80;;;;;;;;;;5022668;28;20551;-42
2021/03/26 08:22:30;;;;;;;6.68;6.38;;;;;;;;;;5028172;28;20523;-44
2021/03/26 08:24:56;;;;;;;9.57;8.48;;;;;;;;;;5026081;28;20486;-42
2021/03/26 08:27:25;;;;;;;6.55;5.97;;;;;;;;;;5023487;28;20112;-43
2021/03/26 08:30:10;;;;;;;5.55;5.10;;;;;;;;;;5017011;28;20034;-43
2021/03/26 08:32:52;;;;;;;6.65;6.35;;;;;;;;;;5017898;28;20050;-44
2021/03/26 08:35:31;;;;;;;8.85;6.90;;;;;;;;;;5022558;28;20030;-42
2021/03/26 08:38:16;;;;;;;6.70;5.90;;;;;;;;;;5029681;28;20532;-42
2021/03/26 08:40:49;;;;;;;5.53;5.00;;;;;;;;;;5024808;28;20046;-44
2021/03/26 08:43:17;;;;;;;6.00;5.63;;;;;;;;;;5024288;28;20086;-43
2021/03/26 08:45:46;;;;;;;6.50;5.97;;;;;;;;;;5028126;28;20054;-42
2021/03/26 08:48:31;;;;;;;6.93;5.45;;;;;;;;;;5019606;28;20385;-42
2021/03/26 08:51:16;;;;;;;6.00;5.57;;;;;;;;;;5014439;28;20051;-43
2021/03/26 08:54:01;;;;;;;3.75;3.40;;;;;;;;;;5012786;28;20041;-44
2021/03/26 08:56:31;;;;;;;3.50;3.28;;;;;;;;;;5023605;28;20038;-45
2021/03/26 08:58:57;;;;;;;4.22;3.15;;;;;;;;;;5026444;28;20153;-42
2021/03/26 09:01:31;;;;;;;5.88;2.97;;;;;;;;;;5027115;28;20429;-43
2021/03/26 09:04:15;;;;;;;3.45;2.13;;;;;;;;;;5025797;28;20037;-44
2021/03/26 09:06:45;;;;;;;3.15;2.90;;;;;;;;;;5017742;28;20108;-43
2021/03/26 09:09:30;;;;;;;3.10;2.78;;;;;;;;;;5030269;28;20045;-43
2021/03/26 09:12:15;;;;;;;5.13;3.50;;;;;;;;;;5027263;28;20049;-43
2021/03/26 09:14:57;;;;;;;2.67;2.50;;;;;;;;;;5019770;28;20107;-42
2021/03/26 09:17:23;;;;;;;3.13;2.92;;;;;;;;;;5028746;28;20029;-44
2021/03/26 09:19:54;;;;;;;4.15;2.35;;;;;;;;;;5028217;28;20037;-43
2021/03/26 09:22:26;;;;;;;3.13;2.78;;;;;;;;;;5033610;28;20053;-45
2021/03/26 09:25:02;;;;;;;10.73;3.30;;;;;;;;;;5018955;28;20050;-46
2021/03/26 09:27:52;;;;;;;4.22;2.30;;;;;;;;;;5020745;28;20049;-45
2021/03/26 09:30:22;;;;;;;3.20;1.92;;;;;;;;;;5019567;28;20054;-45
2021/03/26 09:33:07;;;;;;;2.45;2.00;;;;;;;;;;5024502;28;20184;-43
2021/03/26 09:35:37;;;;;;;3.55;1.75;;;;;;;;;;5026583;28;20046;-43
2021/03/26 09:38:05;;;;;;;2.38;1.88;;;;;;;;;;5031668;28;20144;-43
2021/03/26 09:40:34;;;;;;;5.82;1.92;;;;;;;;;;5025412;28;20072;-42
2021/03/26 09:43:20;;;;;;;2.22;1.70;;;;;;;;;;5031080;28;20037;-42
2021/03/26 09:45:58;;;;;;;1.95;1.85;;;;;;;;;;5028359;28;20088;-44
2021/03/26 09:48:27;;;;;;;3.80;1.50;;;;;;;;;;5027520;28;20038;-42
2021/03/26 09:51:04;;;;;;;3.33;1.90;;;;;;;;;;5031255;28;20049;-42
2021/03/26 09:53:35;;;;;;;1.60;1.50;;;;;;;;;;5027576;28;20059;-43
2021/03/26 09:56:20;;;;;;;2.22;1.88;;;;;;;;;;5026767;28;20026;-43
2021/03/26 09:59:09;;;;;;;2.58;1.65;;;;;;;;;;5015739;28;20041;-47
2021/03/26 10:01:39;;;;;;;4.07;2.85;;;;;;;;;;5019615;28;20486;-46
2021/03/26 10:04:14;;;;;;;1.98;1.75;;;;;;;;;;5025978;28;20034;-42
2021/03/26 10:06:57;;;;;;;3.30;1.50;;;;;;;;;;5028663;28;20037;-45
2021/03/26 10:09:47;;;;;;;3.40;1.52;;;;;;;;;;5026457;28;20041;-45
2021/03/26 10:12:22;;;;;;;3.15;1.50;;;;;;;;;;5027735;28;20084;-43
2021/03/26 10:14:55;;;;;;;2.45;1.77;;;;;;;;;;5015176;28;20049;-44
2021/03/26 10:17:30;;;;;;;4.35;1.60;;;;;;;;;;5027275;28;20049;-43
2021/03/26 10:20:04;;;;;;;1.90;1.80;;;;;;;;;;5020279;28;20112;-43
2021/03/26 10:22:30;;;;;;;;;;;;;;;;;;5030791;28;20554;-43
2021/03/26 10:25:01;;;;;;;1.92;1.83;;;;;;;;;;5022473;28;20334;-43
2021/03/26 10:27:34;;;;;;;2.72;1.77;;;;;;;;;;5016500;28;20088;-44
2021/03/26 10:30:07;;;;;;;1.65;1.35;;;;;;;;;;5016404;28;20410;-45
2021/03/26 10:32:40;;;;;;;3.00;1.67;;;;;;;;;;5023788;28;20061;-43
2021/03/26 10:35:26;;;;;;;4.20;1.88;;;;;;;;;;5031604;28;20026;-43
2021/03/26 10:37:53;;;;;;;1.40;1.27;;;;;;;;;;5026669;28;20034;-43
2021/03/26 10:40:26;;;;;;;3.92;1.60;;;;;;;;;;5027306;28;20117;-42
2021/03/26 10:43:02;;;;;;;4.20;1.48;;;;;;;;;;5030485;28;20049;-44
2021/03/26 10:45:32;;;;;;;2.75;1.70;;;;;;;;;;5024255;28;20169;-42
2021/03/26 10:48:02;;;;;;;2.35;1.33;;;;;;;;;;5028594;28;20666;-44
2021/03/26 10:50:28;;;;;;;1.88;1.30;;;;;;;;;;5028977;28;20038;-46
2021/03/26 10:53:01;;;;;;;1.40;1.30;;;;;;;;;;5025602;28;20042;-44
2021/03/26 10:55:30;;;;;;;1.38;1.35;;;;;;;;;;5014629;28;20036;-44
2021/03/26 10:58:15;;;;;;;1.80;1.40;;;;;;;;;;5025450;28;20664;-44
2021/03/26 11:00:43;;;;;;;1.65;1.30;;;;;;;;;;5024817;28;20079;-45
2021/03/26 11:03:19;;;;;;;1.80;1.23;;;;;;;;;;5026653;28;20521;-45
2021/03/26 11:05:55;;;;;;;4.78;1.70;;;;;;;;;;5025432;28;20526;-46
2021/03/26 11:08:28;;;;;;;1.52;1.42;;;;;;;;;;5026365;28;20037;-43
2021/03/26 11:10:56;;;;;;;2.10;1.88;;;;;;;;;;5030869;28;20041;-43
2021/03/26 11:13:41;;;;;;;3.92;2.05;;;;;;;;;;5019616;28;20124;-45
2021/03/26 11:16:10;;;;;;;3.83;1.40;;;;;;;;;;5017000;28;20065;-43
2021/03/26 11:18:39;;;;;;;6.88;1.90;;;;;;;;;;5037812;28;20042;-45
2021/03/26 11:21:15;;;;;;;3.00;1.20;;;;;;;;;;5019949;28;20060;-43
2021/03/26 11:23:52;;;;;;;2.50;1.95;;;;;;;;;;5024026;28;20117;-43
2021/03/26 11:26:30;;;;;;;2.67;1.17;;;;;;;;;;5023951;28;20397;-44
2021/03/26 11:29:14;;;;;;;1.98;1.38;;;;;;;;;;5025513;28;20044;-43
2021/03/26 11:31:40;;;;;;;3.25;1.23;;;;;;;;;;5029160;28;20056;-43
2021/03/26 11:34:17;;;;;;;2.55;1.15;;;;;;;;;;5025554;28;20073;-44
2021/03/26 11:36:47;;;;;;;1.45;1.35;;;;;;;;;;5025525;28;20055;-42
2021/03/26 11:39:17;;;;;;;2.60;1.45;;;;;;;;;;5020990;28;20104;-42
2021/03/26 11:42:02;;;;;;;1.45;1.20;;;;;;;;;;5023830;28;20045;-44
2021/03/26 11:44:39;;;;;;;1.80;1.27;;;;;;;;;;5016815;28;20531;-43
2021/03/26 11:47:14;;;;;;;2.55;1.40;;;;;;;;;;5020064;28;20050;-43
2021/03/26 11:49:43;;;;;;;2.65;1.10;;;;;;;;;;5020970;28;20087;-44
2021/03/26 11:52:11;;;;;;;3.33;1.50;;;;;;;;;;5030041;28;20061;-43
2021/03/26 11:54:43;;;;;;;1.98;1.10;;;;;;;;;;5023707;28;20103;-44
2021/03/26 11:57:15;;;;;;;3.03;1.05;;;;;;;;;;5026124;28;20629;-43
2021/03/26 12:00:00;;;;;;;4.00;1.08;;;;;;;;;;5013651;28;20041;-46
2021/03/26 12:02:27;;;;;;;1.20;1.20;;;;;;;;;;5023129;28;20033;-43
2021/03/26 12:05:03;;;;;;;2.90;1.30;;;;;;;;;;5026879;28;20598;-44
2021/03/26 12:08:00;;;;;;;3.90;1.27;;;;;;;;;;5028636;28;20099;-43
2021/03/26 12:10:32;;;;;;;2.78;1.20;;;;;;;;;;5024414;28;20033;-44
2021/03/26 12:12:58;;;;;;;1.10;1.00;;;;;;;;;;5027558;28;20052;-44
2021/03/26 12:15:27;;;;;;;3.08;1.30;;;;;;;;;;5028035;28;20065;-43
2021/03/26 12:18:15;;;;;;;2.22;1.27;;;;;;;;;;5022378;28;20033;-46
2021/03/26 12:20:42;;;;;;;3.72;1.05;;;;;;;;;;5021940;28;20026;-45
2021/03/26 12:23:26;;;;;;;1.23;1.20;;;;;;;;;;5025127;28;20046;-46
2021/03/26 12:25:57;;;;;;;3.85;1.10;;;;;;;;;;5023123;28;20040;-45
2021/03/26 12:28:33;;;;;;;1.10;1.00;;;;;;;;;;5013723;28;20045;-44
2021/03/26 12:31:04;;;;;;;2.75;1.00;;;;;;;;;;5022933;28;20122;-46
2021/03/26 12:33:43;;;;;;;1.98;1.45;;;;;;;;;;5025541;28;20422;-48
2021/03/26 12:36:17;;;;;;;3.15;1.30;;;;;;;;;;5029443;28;20041;-47
2021/03/26 12:38:58;;;;;;;1.55;1.30;;;;;;;;;;5021453;28;20104;-48
2021/03/26 12:41:34;;;;;;;1.75;1.35;;;;;;;;;;5029435;28;20577;-45
2021/03/26 12:44:26;;;;;;;1.77;1.00;;;;;;;;;;5032738;28;20096;-47
2021/03/26 12:47:12;;;;;;;1.80;1.00;;;;;;;;;;5025723;28;20571;-44
2021/03/26 12:49:44;;;;;;;1.30;1.20;;;;;;;;;;5030031;28;20042;-42
2021/03/26 12:52:19;;;;;;;3.50;1.00;;;;;;;;;;5032461;28;20065;-42
2021/03/26 12:54:55;;;;;;;1.17;1.00;;;;;;;;;;5025835;28;20389;-42
2021/03/26 12:57:25;;;;;;;0.88;0.88;;;;;;;;;;5031042;28;20068;-45
2021/03/26 13:00:12;;;;;;;3.00;0.90;;;;;;;;;;5023811;28;20034;-44
2021/03/26 13:02:46;;;;;;;1.38;0.90;;;;;;;;;;5023423;28;20117;-44
2021/03/26 13:05:21;;;;;;;1.42;1.30;;;;;;;;;;5030635;28;20145;-44
2021/03/26 13:07:53;;;;;;;2.50;0.90;;;;;;;;;;5024387;28;20037;-43
2021/03/26 13:10:38;;;;;;;2.00;1.00;;;;;;;;;;5025983;28;20034;-43
2021/03/26 13:13:25;;;;;;;1.00;0.98;;;;;;;;;;5032986;28;20520;-43
2021/03/26 13:16:05;;;;;;;0.90;0.90;;;;;;;;;;5028993;28;20037;-45
2021/03/26 13:18:32;;;;;;;1.55;1.17;;;;;;;;;;5023475;28;21545;-44
2021/03/26 13:21:21;;;;;;;1.15;1.05;;;;;;;;;;5031887;28;20045;-42
2021/03/26 13:23:52;;;;;;;0.90;0.90;;;;;;;;;;5027244;28;20741;-44
2021/03/26 13:26:22;;;;;;;0.98;0.98;;;;;;;;;;5027577;28;20042;-47
2021/03/26 13:28:52;;;;;;;1.33;0.95;;;;;;;;;;5034015;28;20374;-42
2021/03/26 13:31:21;;;;;;;1.00;1.00;;;;;;;;;;5026608;28;20120;-43
2021/03/26 13:33:51;;;;;;;1.42;1.00;;;;;;;;;;5029209;28;20056;-43
2021/03/26 13:36:21;;;;;;;1.00;1.00;;;;;;;;;;5029480;28;20112;-43
2021/03/26 13:38:55;;;;;;;0.90;0.90;;;;;;;;;;5026523;28;20072;-44
2021/03/26 13:41:21;;;;;;;2.58;0.90;;;;;;;;;;5019597;28;20030;-42
2021/03/26 13:43:51;;;;;;;1.80;1.23;;;;;;;;;;5027051;28;20053;-42
2021/03/26 13:46:27;;;;;;;0.90;0.90;;;;;;;;;;5024444;28;20042;-41
2021/03/26 13:49:07;;;;;;;0.85;0.85;;;;;;;;;;5031323;28;20120;-42
2021/03/26 13:51:34;;;;;;;0.90;0.90;;;;;;;;;;5025325;28;20064;-40
2021/03/26 13:54:09;;;;;;;0.90;0.90;;;;;;;;;;5029789;28;20042;-40
2021/03/26 13:56:38;;;;;;;1.00;0.90;;;;;;;;;;5029576;28;20041;-41
2021/03/26 13:59:31;;;;;;;1.83;0.80;;;;;;;;;;5021721;28;20053;-41
2021/03/26 14:01:57;;;;;;;1.48;0.93;;;;;;;;;;5018085;28;20057;-43
2021/03/26 14:04:33;;;;;;;0.90;0.90;;;;;;;;;;5028672;28;20477;-41
2021/03/26 14:07:13;;;;;;;0.98;0.90;;;;;;;;;;5024357;28;20061;-41
2021/03/26 14:09:54;;;;;;;1.38;1.20;;;;;;;;;;5029955;28;20563;-41
2021/03/26 14:12:24;;;;;;;0.90;0.90;;;;;;;;;;5029480;28;20045;-44
2021/03/26 14:15:00;;;;;;;0.93;0.93;;;;;;;;;;5026620;28;20567;-43
2021/03/26 14:17:44;;;;;;;1.95;1.23;;;;;;;;;;5015499;28;20420;-40
2021/03/26 14:20:18;;;;;;;1.20;1.10;;;;;;;;;;5027015;28;20095;-42
2021/03/26 14:23:04;;;;;;;0.90;0.90;;;;;;;;;;5019627;28;20486;-42
2021/03/26 14:25:47;;;;;;;0.88;0.88;;;;;;;;;;5046961;28;20167;-42
2021/03/26 14:28:32;;;;;;;0.98;0.98;;;;;;;;;;5017519;28;20050;-44
2021/03/26 14:31:01;;;;;;;1.00;1.00;;;;;;;;;;5019419;28;20034;-41
2021/03/26 14:33:34;;;;;;;0.90;0.90;;;;;;;;;;5031688;28;20045;-43
2021/03/26 14:36:19;;;;;;;0.88;0.80;;;;;;;;;;5027900;28;20090;-42
2021/03/26 14:38:52;;;;;;;0.90;0.90;;;;;;;;;;5025418;28;20030;-40
2021/03/26 14:41:35;;;;;;;0.90;0.90;;;;;;;;;;5029064;28;20045;-41
2021/03/26 14:44:15;;;;;;;1.00;0.90;;;;;;;;;;5025938;28;20099;-42
2021/03/26 14:46:47;;;;;;;1.00;1.00;;;;;;;;;;5025744;28;20034;-42
2021/03/26 14:49:34;;;;;;;1.00;1.00;;;;;;;;;;5030637;28;20045;-41
2021/03/26 14:52:04;;;;;;;3.75;1.60;;;;;;;;;;5026634;28;20056;-41
2021/03/26 14:54:35;;;;;;;0.90;0.90;;;;;;;;;;5027539;28;20042;-41
2021/03/26 14:57:04;;;;;;;1.23;0.90;;;;;;;;;;5030574;28;20041;-41
2021/03/26 14:59:51;;;;;;;1.00;1.00;;;;;;;;;;5024761;28;20469;-40
2021/03/26 15:02:18;;;;;;;1.80;1.10;;;;;;;;;;5027417;28;20080;-40
2021/03/26 15:04:51;;;;;;;2.80;1.10;;;;;;;;;;5027557;28;20052;-42
2021/03/26 15:07:28;;;;;;;0.80;0.80;;;;;;;;;;5021461;28;20057;-41
2021/03/26 15:10:05;;;;;;;2.28;2.17;;;;;;;;;;5030750;28;20069;-44